sensor_id;sensor_type;location;lat;lon;timestamp;P1;durP1;ratioP1;P2;durP2;ratioP2
53674;SDS011;39574;50.534;8.500;2024-03-07T00:02:59;46.8;;;24.8;;
53674;SDS011;39574;50.534;8.500;2024-03-07T00:07:58;47.7;;;25.1;;
53674;SDS011;39574;50.534;8.500;2024-03-07T00:12:57;50.0;;;26.5;;
53674;SDS011;39574;50.534;8.500;2024-03-07T00:17:56;47.9;;;25.9;;
53674;SDS011;39574;50.534;8.500;2024-03-07T00:22:55;47.6;;;25.6;;
53674;SDS011;39574;50.534;8.500;2024-03-07T00:27:53;47.0;;;25.0;;
53674;SDS011;39574;50.534;8.500;2024-03-07T00:32:52;44.9;;;24.2;;
53674;SDS011;39574;50.534;8.500;2024-03-07T00:37:52;43.4;;;23.3;;
53674;SDS011;39574;50.534;8.500;2024-03-07T00:42:54;44.6;;;23.7;;
53674;SDS011;39574;50.534;8.500;2024-03-07T00:47:51;42.8;;;23.3;;
53674;SDS011;39574;50.534;8.500;2024-03-07T00:52:49;43.4;;;23.5;;
53674;SDS011;39574;50.534;8.500;2024-03-07T01:02:47;42.0;;;22.9;;
53674;SDS011;39574;50.534;8.500;2024-03-07T01:12:45;38.9;;;21.1;;
53674;SDS011;39574;50.534;8.500;2024-03-07T01:17:44;38.8;;;21.4;;
53674;SDS011;39574;50.534;8.500;2024-03-07T01:22:43;36.2;;;20.4;;
53674;SDS011;39574;50.534;8.500;2024-03-07T01:27:42;35.5;;;19.3;;
53674;SDS011;39574;50.534;8.500;2024-03-07T01:32:41;33.7;;;18.4;;
53674;SDS011;39574;50.534;8.500;2024-03-07T01:37:40;31.6;;;17.4;;
53674;SDS011;39574;50.534;8.500;2024-03-07T01:42:39;31.5;;;17.2;;
53674;SDS011;39574;50.534;8.500;2024-03-07T01:52:38;30.5;;;17.1;;
53674;SDS011;39574;50.534;8.500;2024-03-07T01:57:36;30.1;;;17.2;;
53674;SDS011;39574;50.534;8.500;2024-03-07T02:02:35;30.3;;;17.0;;
53674;SDS011;39574;50.534;8.500;2024-03-07T02:07:34;30.3;;;16.7;;
53674;SDS011;39574;50.534;8.500;2024-03-07T02:12:34;31.4;;;17.0;;
53674;SDS011;39574;50.534;8.500;2024-03-07T02:17:32;31.1;;;16.9;;
53674;SDS011;39574;50.534;8.500;2024-03-07T02:22:31;31.9;;;17.3;;
53674;SDS011;39574;50.534;8.500;2024-03-07T02:27:30;32.5;;;18.0;;
53674;SDS011;39574;50.534;8.500;2024-03-07T02:32:29;34.9;;;18.9;;
53674;SDS011;39574;50.534;8.500;2024-03-07T02:37:28;35.3;;;19.4;;
53674;SDS011;39574;50.534;8.500;2024-03-07T02:42:27;34.3;;;19.2;;
53674;SDS011;39574;50.534;8.500;2024-03-07T02:47:26;35.3;;;19.6;;
53674;SDS011;39574;50.534;8.500;2024-03-07T02:52:25;34.5;;;19.8;;
53674;SDS011;39574;50.534;8.500;2024-03-07T02:57:24;35.5;;;19.6;;
53674;SDS011;39574;50.534;8.500;2024-03-07T03:02:23;34.3;;;18.7;;
53674;SDS011;39574;50.534;8.500;2024-03-07T03:07:22;34.3;;;18.7;;
53674;SDS011;39574;50.534;8.500;2024-03-07T03:12:21;33.2;;;18.1;;
53674;SDS011;39574;50.534;8.500;2024-03-07T03:17:19;33.0;;;17.7;;
53674;SDS011;39574;50.534;8.500;2024-03-07T03:22:19;30.9;;;17.2;;
53674;SDS011;39574;50.534;8.500;2024-03-07T03:27:18;32.3;;;18.0;;
53674;SDS011;39574;50.534;8.500;2024-03-07T03:32:16;31.5;;;17.7;;
53674;SDS011;39574;50.534;8.500;2024-03-07T03:37:16;31.6;;;17.9;;
53674;SDS011;39574;50.534;8.500;2024-03-07T03:42:15;31.4;;;18.1;;
53674;SDS011;39574;50.534;8.500;2024-03-07T03:47:13;31.7;;;18.1;;
53674;SDS011;39574;50.534;8.500;2024-03-07T03:52:13;32.8;;;18.5;;
53674;SDS011;39574;50.534;8.500;2024-03-07T03:57:12;33.6;;;18.5;;
53674;SDS011;39574;50.534;8.500;2024-03-07T04:02:17;34.9;;;18.9;;
53674;SDS011;39574;50.534;8.500;2024-03-07T04:07:10;33.8;;;18.5;;
53674;SDS011;39574;50.534;8.500;2024-03-07T04:12:09;32.6;;;18.0;;
53674;SDS011;39574;50.534;8.500;2024-03-07T04:17:11;30.8;;;17.4;;
53674;SDS011;39574;50.534;8.500;2024-03-07T04:22:07;30.9;;;17.6;;
53674;SDS011;39574;50.534;8.500;2024-03-07T04:27:06;31.5;;;17.5;;
53674;SDS011;39574;50.534;8.500;2024-03-07T04:32:05;31.3;;;17.2;;
53674;SDS011;39574;50.534;8.500;2024-03-07T04:37:04;31.1;;;17.2;;
53674;SDS011;39574;50.534;8.500;2024-03-07T04:42:03;30.3;;;17.3;;
53674;SDS011;39574;50.534;8.500;2024-03-07T04:47:02;30.5;;;17.6;;
53674;SDS011;39574;50.534;8.500;2024-03-07T04:52:01;31.1;;;17.6;;
53674;SDS011;39574;50.534;8.500;2024-03-07T04:57:00;30.4;;;17.3;;
53674;SDS011;39574;50.534;8.500;2024-03-07T05:01:59;29.8;;;16.9;;
53674;SDS011;39574;50.534;8.500;2024-03-07T05:06:58;30.3;;;16.8;;
53674;SDS011;39574;50.534;8.500;2024-03-07T05:11:57;31.7;;;17.0;;
53674;SDS011;39574;50.534;8.500;2024-03-07T05:16:55;31.2;;;17.2;;
53674;SDS011;39574;50.534;8.500;2024-03-07T05:21:54;30.7;;;17.4;;
53674;SDS011;39574;50.534;8.500;2024-03-07T05:26:53;30.5;;;17.2;;
53674;SDS011;39574;50.534;8.500;2024-03-07T05:31:52;30.7;;;17.1;;
53674;SDS011;39574;50.534;8.500;2024-03-07T05:36:51;31.1;;;16.9;;
53674;SDS011;39574;50.534;8.500;2024-03-07T05:41:49;30.6;;;16.9;;
53674;SDS011;39574;50.534;8.500;2024-03-07T05:46:48;30.4;;;16.8;;
53674;SDS011;39574;50.534;8.500;2024-03-07T05:51:48;30.2;;;17.1;;
53674;SDS011;39574;50.534;8.500;2024-03-07T05:56:49;31.6;;;17.6;;
53674;SDS011;39574;50.534;8.500;2024-03-07T06:01:46;32.1;;;18.0;;
53674;SDS011;39574;50.534;8.500;2024-03-07T06:06:45;31.8;;;17.9;;
53674;SDS011;39574;50.534;8.500;2024-03-07T06:11:44;31.8;;;17.6;;
53674;SDS011;39574;50.534;8.500;2024-03-07T06:16:43;32.9;;;18.2;;
53674;SDS011;39574;50.534;8.500;2024-03-07T06:21:41;32.0;;;17.9;;
53674;SDS011;39574;50.534;8.500;2024-03-07T06:26:41;31.6;;;17.8;;
53674;SDS011;39574;50.534;8.500;2024-03-07T06:31:40;31.3;;;17.8;;
53674;SDS011;39574;50.534;8.500;2024-03-07T06:36:39;30.8;;;17.4;;
53674;SDS011;39574;50.534;8.500;2024-03-07T06:41:37;31.1;;;17.7;;
53674;SDS011;39574;50.534;8.500;2024-03-07T06:46:37;32.1;;;18.2;;
53674;SDS011;39574;50.534;8.500;2024-03-07T06:51:35;33.4;;;18.7;;
53674;SDS011;39574;50.534;8.500;2024-03-07T06:56:38;35.1;;;18.9;;
53674;SDS011;39574;50.534;8.500;2024-03-07T07:01:33;33.3;;;18.0;;
53674;SDS011;39574;50.534;8.500;2024-03-07T07:06:31;32.3;;;17.7;;
53674;SDS011;39574;50.534;8.500;2024-03-07T07:11:33;31.9;;;17.6;;
53674;SDS011;39574;50.534;8.500;2024-03-07T07:16:29;33.4;;;18.1;;
53674;SDS011;39574;50.534;8.500;2024-03-07T07:21:29;35.0;;;18.7;;
53674;SDS011;39574;50.534;8.500;2024-03-07T07:26:27;35.2;;;19.1;;
53674;SDS011;39574;50.534;8.500;2024-03-07T07:31:26;35.5;;;19.2;;
53674;SDS011;39574;50.534;8.500;2024-03-07T07:41:24;35.2;;;19.1;;
53674;SDS011;39574;50.534;8.500;2024-03-07T07:46:23;36.5;;;19.6;;
53674;SDS011;39574;50.534;8.500;2024-03-07T07:51:27;36.3;;;19.1;;
53674;SDS011;39574;50.534;8.500;2024-03-07T07:56:21;36.4;;;19.1;;
53674;SDS011;39574;50.534;8.500;2024-03-07T08:01:24;35.2;;;18.8;;
53674;SDS011;39574;50.534;8.500;2024-03-07T08:11:18;35.6;;;18.9;;
53674;SDS011;39574;50.534;8.500;2024-03-07T08:16:16;36.0;;;19.1;;
53674;SDS011;39574;50.534;8.500;2024-03-07T08:21:16;37.5;;;19.4;;
53674;SDS011;39574;50.534;8.500;2024-03-07T08:26:14;36.6;;;18.9;;
53674;SDS011;39574;50.534;8.500;2024-03-07T08:31:13;41.4;;;21.2;;
53674;SDS011;39574;50.534;8.500;2024-03-07T08:36:12;40.8;;;21.2;;
53674;SDS011;39574;50.534;8.500;2024-03-07T08:41:15;39.2;;;20.7;;
53674;SDS011;39574;50.534;8.500;2024-03-07T08:46:10;37.7;;;20.4;;
53674;SDS011;39574;50.534;8.500;2024-03-07T08:51:09;38.3;;;20.4;;
53674;SDS011;39574;50.534;8.500;2024-03-07T08:56:07;39.9;;;20.6;;
53674;SDS011;39574;50.534;8.500;2024-03-07T09:01:07;39.4;;;20.6;;
53674;SDS011;39574;50.534;8.500;2024-03-07T09:06:06;38.1;;;19.7;;
53674;SDS011;39574;50.534;8.500;2024-03-07T09:11:05;41.7;;;20.0;;
53674;SDS011;39574;50.534;8.500;2024-03-07T09:16:05;42.0;;;20.5;;
53674;SDS011;39574;50.534;8.500;2024-03-07T09:21:03;41.1;;;20.2;;
53674;SDS011;39574;50.534;8.500;2024-03-07T09:26:01;42.1;;;20.8;;
53674;SDS011;39574;50.534;8.500;2024-03-07T09:31:01;39.3;;;20.2;;
53674;SDS011;39574;50.534;8.500;2024-03-07T09:36:00;38.1;;;19.7;;
53674;SDS011;39574;50.534;8.500;2024-03-07T09:45:57;39.8;;;20.6;;
53674;SDS011;39574;50.534;8.500;2024-03-07T09:50:57;41.4;;;20.5;;
53674;SDS011;39574;50.534;8.500;2024-03-07T09:55:57;40.6;;;20.5;;
53674;SDS011;39574;50.534;8.500;2024-03-07T10:00:54;39.5;;;20.2;;
53674;SDS011;39574;50.534;8.500;2024-03-07T10:05:54;38.8;;;20.0;;
53674;SDS011;39574;50.534;8.500;2024-03-07T10:10:56;40.0;;;20.4;;
53674;SDS011;39574;50.534;8.500;2024-03-07T10:15:51;43.4;;;21.0;;
53674;SDS011;39574;50.534;8.500;2024-03-07T10:20:52;42.7;;;21.1;;
53674;SDS011;39574;50.534;8.500;2024-03-07T10:25:50;42.0;;;20.7;;
53674;SDS011;39574;50.534;8.500;2024-03-07T10:30:49;39.5;;;19.8;;
53674;SDS011;39574;50.534;8.500;2024-03-07T10:35:47;39.1;;;20.1;;
53674;SDS011;39574;50.534;8.500;2024-03-07T10:40:47;40.2;;;20.2;;
53674;SDS011;39574;50.534;8.500;2024-03-07T10:45:47;38.5;;;19.6;;
53674;SDS011;39574;50.534;8.500;2024-03-07T10:50:48;39.8;;;20.2;;
53674;SDS011;39574;50.534;8.500;2024-03-07T10:55:47;37.0;;;19.6;;
53674;SDS011;39574;50.534;8.500;2024-03-07T11:00:43;36.1;;;19.1;;
53674;SDS011;39574;50.534;8.500;2024-03-07T11:05:43;37.1;;;19.7;;
53674;SDS011;39574;50.534;8.500;2024-03-07T11:10:42;36.0;;;19.4;;
53674;SDS011;39574;50.534;8.500;2024-03-07T11:15:41;35.4;;;19.3;;
53674;SDS011;39574;50.534;8.500;2024-03-07T11:20:40;33.5;;;18.5;;
53674;SDS011;39574;50.534;8.500;2024-03-07T11:25:38;33.8;;;18.0;;
53674;SDS011;39574;50.534;8.500;2024-03-07T11:30:38;34.5;;;17.8;;
53674;SDS011;39574;50.534;8.500;2024-03-07T11:35:36;34.4;;;18.0;;
53674;SDS011;39574;50.534;8.500;2024-03-07T11:40:43;31.3;;;16.2;;
53674;SDS011;39574;50.534;8.500;2024-03-07T11:45:34;30.2;;;15.9;;
53674;SDS011;39574;50.534;8.500;2024-03-07T11:50:34;29.8;;;16.3;;
53674;SDS011;39574;50.534;8.500;2024-03-07T11:55:33;29.3;;;16.4;;
53674;SDS011;39574;50.534;8.500;2024-03-07T12:00:33;30.8;;;16.9;;
53674;SDS011;39574;50.534;8.500;2024-03-07T12:05:32;32.4;;;17.2;;
53674;SDS011;39574;50.534;8.500;2024-03-07T12:10:30;32.4;;;17.0;;
53674;SDS011;39574;50.534;8.500;2024-03-07T12:15:29;30.7;;;16.4;;
53674;SDS011;39574;50.534;8.500;2024-03-07T12:20:29;28.9;;;16.0;;
53674;SDS011;39574;50.534;8.500;2024-03-07T12:30:27;28.8;;;16.2;;
53674;SDS011;39574;50.534;8.500;2024-03-07T12:35:26;28.9;;;15.9;;
53674;SDS011;39574;50.534;8.500;2024-03-07T12:40:25;29.1;;;15.9;;
53674;SDS011;39574;50.534;8.500;2024-03-07T12:45:24;28.8;;;15.7;;
53674;SDS011;39574;50.534;8.500;2024-03-07T12:50:26;28.7;;;15.8;;
53674;SDS011;39574;50.534;8.500;2024-03-07T12:55:22;27.5;;;15.3;;
53674;SDS011;39574;50.534;8.500;2024-03-07T13:00:21;18.9;;;10.8;;
53674;SDS011;39574;50.534;8.500;2024-03-07T13:05:20;17.7;;;9.9;;
53674;SDS011;39574;50.534;8.500;2024-03-07T13:10:19;17.1;;;9.7;;
53674;SDS011;39574;50.534;8.500;2024-03-07T13:15:18;16.3;;;9.4;;
53674;SDS011;39574;50.534;8.500;2024-03-07T13:20:18;16.3;;;9.3;;
53674;SDS011;39574;50.534;8.500;2024-03-07T13:25:17;16.6;;;9.3;;
53674;SDS011;39574;50.534;8.500;2024-03-07T13:30:15;17.2;;;9.4;;
53674;SDS011;39574;50.534;8.500;2024-03-07T13:35:14;18.6;;;10.0;;
53674;SDS011;39574;50.534;8.500;2024-03-07T13:40:14;20.4;;;10.6;;
53674;SDS011;39574;50.534;8.500;2024-03-07T13:45:17;20.7;;;11.2;;
53674;SDS011;39574;50.534;8.500;2024-03-07T13:50:12;21.8;;;11.7;;
53674;SDS011;39574;50.534;8.500;2024-03-07T13:55:11;23.1;;;12.3;;
53674;SDS011;39574;50.534;8.500;2024-03-07T14:06:18;24.0;;;12.7;;
53674;SDS011;39574;50.534;8.500;2024-03-07T14:15:20;23.8;;;12.8;;
53674;SDS011;39574;50.534;8.500;2024-03-07T14:20:41;24.2;;;13.1;;
53674;SDS011;39574;50.534;8.500;2024-03-07T14:25:41;24.2;;;12.9;;
53674;SDS011;39574;50.534;8.500;2024-03-07T14:30:21;23.0;;;12.6;;
53674;SDS011;39574;50.534;8.500;2024-03-07T14:35:07;23.3;;;12.2;;
53674;SDS011;39574;50.534;8.500;2024-03-07T14:40:07;22.8;;;11.9;;
53674;SDS011;39574;50.534;8.500;2024-03-07T14:45:01;21.4;;;11.1;;
53674;SDS011;39574;50.534;8.500;2024-03-07T14:50:00;20.1;;;10.4;;
53674;SDS011;39574;50.534;8.500;2024-03-07T14:54:59;19.4;;;10.1;;
53674;SDS011;39574;50.534;8.500;2024-03-07T14:59:58;19.9;;;10.4;;
53674;SDS011;39574;50.534;8.500;2024-03-07T15:04:58;20.8;;;11.1;;
53674;SDS011;39574;50.534;8.500;2024-03-07T15:09:57;23.9;;;12.4;;
53674;SDS011;39574;50.534;8.500;2024-03-07T15:14:56;25.7;;;13.5;;
53674;SDS011;39574;50.534;8.500;2024-03-07T15:19:54;28.5;;;14.6;;
53674;SDS011;39574;50.534;8.500;2024-03-07T15:24:54;28.7;;;14.9;;
53674;SDS011;39574;50.534;8.500;2024-03-07T15:29:53;28.9;;;14.9;;
53674;SDS011;39574;50.534;8.500;2024-03-07T15:39:51;29.0;;;15.3;;
53674;SDS011;39574;50.534;8.500;2024-03-07T15:59:48;27.3;;;14.8;;
53674;SDS011;39574;50.534;8.500;2024-03-07T16:04:46;25.1;;;14.1;;
53674;SDS011;39574;50.534;8.500;2024-03-07T16:09:46;24.5;;;13.6;;
53674;SDS011;39574;50.534;8.500;2024-03-07T16:14:45;24.7;;;13.2;;
53674;SDS011;39574;50.534;8.500;2024-03-07T16:19:45;23.6;;;12.7;;
53674;SDS011;39574;50.534;8.500;2024-03-07T16:24:43;24.1;;;12.7;;
53674;SDS011;39574;50.534;8.500;2024-03-07T16:29:42;24.1;;;12.9;;
53674;SDS011;39574;50.534;8.500;2024-03-07T16:34:41;23.9;;;12.6;;
53674;SDS011;39574;50.534;8.500;2024-03-07T16:39:40;24.0;;;12.4;;
53674;SDS011;39574;50.534;8.500;2024-03-07T16:49:38;23.7;;;12.7;;
53674;SDS011;39574;50.534;8.500;2024-03-07T16:54:37;24.0;;;12.5;;
53674;SDS011;39574;50.534;8.500;2024-03-07T16:59:37;22.8;;;12.3;;
53674;SDS011;39574;50.534;8.500;2024-03-07T17:09:34;22.8;;;12.5;;
53674;SDS011;39574;50.534;8.500;2024-03-07T17:14:34;23.3;;;13.1;;
53674;SDS011;39574;50.534;8.500;2024-03-07T17:19:32;23.0;;;13.9;;
53674;SDS011;39574;50.534;8.500;2024-03-07T17:24:32;23.4;;;14.3;;
53674;SDS011;39574;50.534;8.500;2024-03-07T17:29:30;25.7;;;14.6;;
53674;SDS011;39574;50.534;8.500;2024-03-07T17:34:30;25.4;;;14.6;;
53674;SDS011;39574;50.534;8.500;2024-03-07T17:39:29;25.1;;;14.7;;
53674;SDS011;39574;50.534;8.500;2024-03-07T17:49:26;24.6;;;14.9;;
53674;SDS011;39574;50.534;8.500;2024-03-07T17:54:25;25.0;;;15.1;;
53674;SDS011;39574;50.534;8.500;2024-03-07T17:59:24;24.1;;;14.8;;
53674;SDS011;39574;50.534;8.500;2024-03-07T18:04:23;24.0;;;14.9;;
53674;SDS011;39574;50.534;8.500;2024-03-07T18:09:22;23.0;;;14.6;;
53674;SDS011;39574;50.534;8.500;2024-03-07T18:14:25;23.0;;;14.6;;
53674;SDS011;39574;50.534;8.500;2024-03-07T18:19:20;23.6;;;14.8;;
53674;SDS011;39574;50.534;8.500;2024-03-07T18:24:19;24.4;;;14.9;;
53674;SDS011;39574;50.534;8.500;2024-03-07T18:29:18;25.1;;;15.0;;
53674;SDS011;39574;50.534;8.500;2024-03-07T18:34:23;25.1;;;15.2;;
53674;SDS011;39574;50.534;8.500;2024-03-07T18:39:16;24.1;;;15.1;;
53674;SDS011;39574;50.534;8.500;2024-03-07T18:44:15;23.5;;;15.3;;
53674;SDS011;39574;50.534;8.500;2024-03-07T18:49:14;24.0;;;15.4;;
53674;SDS011;39574;50.534;8.500;2024-03-07T18:54:14;25.0;;;15.6;;
53674;SDS011;39574;50.534;8.500;2024-03-07T18:59:12;26.1;;;15.9;;
53674;SDS011;39574;50.534;8.500;2024-03-07T19:04:11;26.5;;;15.8;;
53674;SDS011;39574;50.534;8.500;2024-03-07T19:09:10;26.4;;;16.0;;
53674;SDS011;39574;50.534;8.500;2024-03-07T19:14:09;25.1;;;15.5;;
53674;SDS011;39574;50.534;8.500;2024-03-07T19:19:08;23.9;;;14.9;;
53674;SDS011;39574;50.534;8.500;2024-03-07T19:24:07;24.6;;;14.9;;
53674;SDS011;39574;50.534;8.500;2024-03-07T19:29:06;24.6;;;15.0;;
53674;SDS011;39574;50.534;8.500;2024-03-07T19:34:05;24.7;;;14.9;;
53674;SDS011;39574;50.534;8.500;2024-03-07T19:39:03;24.4;;;14.9;;
53674;SDS011;39574;50.534;8.500;2024-03-07T19:44:03;25.6;;;15.2;;
53674;SDS011;39574;50.534;8.500;2024-03-07T19:54:02;26.3;;;15.4;;
53674;SDS011;39574;50.534;8.500;2024-03-07T19:59:00;26.5;;;15.6;;
53674;SDS011;39574;50.534;8.500;2024-03-07T20:03:58;26.4;;;15.3;;
53674;SDS011;39574;50.534;8.500;2024-03-07T20:08:59;25.3;;;14.7;;
53674;SDS011;39574;50.534;8.500;2024-03-07T20:13:57;26.0;;;14.7;;
53674;SDS011;39574;50.534;8.500;2024-03-07T20:18:55;25.2;;;14.5;;
53674;SDS011;39574;50.534;8.500;2024-03-07T20:23:54;25.1;;;14.8;;
53674;SDS011;39574;50.534;8.500;2024-03-07T20:28:53;24.8;;;14.9;;
53674;SDS011;39574;50.534;8.500;2024-03-07T20:33:52;23.5;;;14.5;;
53674;SDS011;39574;50.534;8.500;2024-03-07T20:38:51;23.5;;;14.2;;
53674;SDS011;39574;50.534;8.500;2024-03-07T20:43:50;24.6;;;14.4;;
53674;SDS011;39574;50.534;8.500;2024-03-07T20:48:50;25.4;;;14.3;;
53674;SDS011;39574;50.534;8.500;2024-03-07T20:53:48;25.5;;;14.3;;
53674;SDS011;39574;50.534;8.500;2024-03-07T20:58:47;25.1;;;14.2;;
53674;SDS011;39574;50.534;8.500;2024-03-07T21:03:46;26.0;;;14.5;;
53674;SDS011;39574;50.534;8.500;2024-03-07T21:08:45;24.9;;;13.9;;
53674;SDS011;39574;50.534;8.500;2024-03-07T21:13:44;24.5;;;14.3;;
53674;SDS011;39574;50.534;8.500;2024-03-07T21:18:43;24.1;;;14.3;;
53674;SDS011;39574;50.534;8.500;2024-03-07T21:23:43;24.4;;;14.1;;
53674;SDS011;39574;50.534;8.500;2024-03-07T21:28:41;24.3;;;13.9;;
53674;SDS011;39574;50.534;8.500;2024-03-07T21:33:39;23.9;;;13.7;;
53674;SDS011;39574;50.534;8.500;2024-03-07T21:38:39;24.8;;;14.0;;
53674;SDS011;39574;50.534;8.500;2024-03-07T21:43:38;24.9;;;14.0;;
53674;SDS011;39574;50.534;8.500;2024-03-07T21:53:36;25.4;;;14.2;;
53674;SDS011;39574;50.534;8.500;2024-03-07T21:58:35;25.2;;;14.1;;
53674;SDS011;39574;50.534;8.500;2024-03-07T22:03:33;25.7;;;14.2;;
53674;SDS011;39574;50.534;8.500;2024-03-07T22:08:37;25.0;;;14.2;;
53674;SDS011;39574;50.534;8.500;2024-03-07T22:13:35;25.9;;;14.5;;
53674;SDS011;39574;50.534;8.500;2024-03-07T22:18:30;26.1;;;14.8;;
53674;SDS011;39574;50.534;8.500;2024-03-07T22:23:29;27.1;;;15.4;;
53674;SDS011;39574;50.534;8.500;2024-03-07T22:28:28;27.1;;;15.3;;
53674;SDS011;39574;50.534;8.500;2024-03-07T22:38:29;27.4;;;15.5;;
53674;SDS011;39574;50.534;8.500;2024-03-07T22:43:25;27.6;;;15.1;;
53674;SDS011;39574;50.534;8.500;2024-03-07T22:48:24;28.1;;;15.7;;
53674;SDS011;39574;50.534;8.500;2024-03-07T22:53:23;29.8;;;16.5;;
53674;SDS011;39574;50.534;8.500;2024-03-07T22:58:22;29.8;;;16.7;;
53674;SDS011;39574;50.534;8.500;2024-03-07T23:03:25;29.1;;;16.6;;
53674;SDS011;39574;50.534;8.500;2024-03-07T23:08:25;29.7;;;16.7;;
53674;SDS011;39574;50.534;8.500;2024-03-07T23:13:18;29.4;;;16.4;;
53674;SDS011;39574;50.534;8.500;2024-03-07T23:18:18;29.7;;;16.8;;
53674;SDS011;39574;50.534;8.500;2024-03-07T23:23:16;30.0;;;16.9;;
53674;SDS011;39574;50.534;8.500;2024-03-07T23:28:15;30.5;;;16.9;;
53674;SDS011;39574;50.534;8.500;2024-03-07T23:33:14;29.6;;;16.7;;
53674;SDS011;39574;50.534;8.500;2024-03-07T23:38:13;30.0;;;16.9;;
53674;SDS011;39574;50.534;8.500;2024-03-07T23:48:11;29.3;;;16.9;;
53674;SDS011;39574;50.534;8.500;2024-03-07T23:53:09;30.1;;;17.1;;
53674;SDS011;39574;50.534;8.500;2024-03-07T23:58:08;32.5;;;17.7;;
